Lakeview Heights, Missouri
Current Conditions -  °F | °C
As of 4:35 PM on Monday 24 Nov 2014 (Local Time) from KGLY Reporting Station
Scattered Clouds Scattered Clouds  
Wind Chill: 32°   Ceiling: Unl
Heat Index: 41°   Visibility: 10mi
Dew Point: 28°   Wind: 17mph
Humidity: 61%   Direction: 290°WNW
Pressure: 29.9"   Gusts: 22mph
Location:  38.4371°N, 93.4072°W
Report Text: KGLY 242235Z AUTO 29015G19KT 10SM SCT043 05/M02 A2990 RMK AO2
Loading
Personal Weather Stations






























Interactive Weather Map New forecast layout! Learn more

10-Day Weather Forecast

Advertisements
Track Severe Weather on mobile